Time;durP1;ratioP1;P1;durP2;ratioP2;P2;SDS_P1;SDS_P2;PMS_P1;PMS_P2;Temp;Humidity;BMP_temperature;BMP_pressure;BME280_temperature;BME280_humidity;BME280_pressure;Samples;Min_cycle;Max_cycle;Signal;HPM_P1;HPM_P2
2024/03/08 00:00:27;;;;;;;4.35;2.53;;;8.10;95.90;;;;;;4265239;27;20119;-56
2024/03/08 00:02:29;;;;;;;8.77;3.28;;;8.10;96.00;;;;;;4265617;27;20039;-54
2024/03/08 00:04:33;;;;;;;4.25;1.92;;;8.00;96.00;;;;;;4265641;27;20042;-54
2024/03/08 00:06:35;;;;;;;5.38;3.42;;;8.00;96.10;;;;;;4265656;27;20039;-55
2024/03/08 00:08:37;;;;;;;5.03;2.90;;;8.10;96.00;;;;;;4265590;27;20500;-55
2024/03/08 00:10:39;;;;;;;4.50;2.67;;;8.00;96.00;;;;;;4247123;28;20118;-55
2024/03/08 00:12:43;;;;;;;6.20;3.08;;;8.10;96.00;;;;;;4265417;27;20444;-55
2024/03/08 00:14:45;;;;;;;4.72;3.90;;;8.00;96.00;;;;;;4265028;27;20089;-55
2024/03/08 00:16:48;;;;;;;3.13;1.98;;;8.00;96.20;;;;;;4265482;27;20042;-55
2024/03/08 00:18:50;;;;;;;7.80;3.42;;;8.00;96.30;;;;;;4265179;27;20053;-55
2024/03/08 00:20:53;;;;;;;4.75;3.22;;;8.00;96.20;;;;;;4265750;27;20055;-54
2024/03/08 00:22:57;;;;;;;6.35;3.40;;;7.90;96.10;;;;;;4265816;27;20055;-55
2024/03/08 00:24:59;;;;;;;3.97;3.13;;;7.90;96.20;;;;;;4265715;27;20043;-54
2024/03/08 00:27:02;;;;;;;5.07;3.05;;;7.90;96.30;;;;;;4265948;27;20534;-54
2024/03/08 00:29:04;;;;;;;6.60;3.53;;;7.80;96.30;;;;;;4265671;27;20050;-55
2024/03/08 00:31:06;;;;;;;6.00;3.25;;;7.80;96.40;;;;;;4266853;27;20039;-59
2024/03/08 00:33:09;;;;;;;6.38;4.43;;;7.80;96.50;;;;;;4267007;27;20047;-55
2024/03/08 00:35:12;;;;;;;5.78;3.55;;;7.80;96.50;;;;;;4265344;27;20042;-60
2024/03/08 00:37:16;;;;;;;5.10;2.70;;;7.90;96.60;;;;;;4265511;27;20047;-54
2024/03/08 00:39:19;;;;;;;3.45;2.30;;;7.80;96.50;;;;;;4265451;27;20047;-54
2024/03/08 00:41:21;;;;;;;4.35;3.25;;;7.80;96.60;;;;;;4265238;27;20047;-54
2024/03/08 00:43:23;;;;;;;6.40;2.95;;;7.70;96.70;;;;;;4246620;27;20092;-55
2024/03/08 00:45:26;;;;;;;7.68;3.70;;;7.70;96.80;;;;;;4265166;27;20538;-55
2024/03/08 00:47:28;;;;;;;5.18;3.63;;;7.70;96.90;;;;;;4265460;27;20074;-55
2024/03/08 00:49:30;;;;;;;5.43;3.08;;;7.70;96.70;;;;;;4265392;27;20486;-55
2024/03/08 00:51:32;;;;;;;12.23;3.40;;;7.70;96.80;;;;;;4268907;27;20118;-54
2024/03/08 00:53:36;;;;;;;5.50;2.88;;;7.70;96.90;;;;;;4250181;27;20092;-54
2024/03/08 00:55:38;;;;;;;5.75;3.55;;;7.60;96.80;;;;;;4268475;27;20046;-55
2024/03/08 00:57:41;;;;;;;4.60;3.20;;;7.50;97.00;;;;;;4268347;27;20413;-54
2024/03/08 00:59:43;;;;;;;9.63;4.72;;;7.50;97.10;;;;;;4267771;27;20416;-54
2024/03/08 01:01:45;;;;;;;9.80;4.30;;;7.50;97.20;;;;;;4268260;27;20055;-54
2024/03/08 01:03:48;;;;;;;6.80;2.97;;;7.40;97.20;;;;;;4268260;27;20047;-55
2024/03/08 01:05:51;;;;;;;6.88;3.35;;;7.30;97.40;;;;;;4268368;27;20054;-57
2024/03/08 01:07:53;;;;;;;8.10;3.88;;;7.30;97.40;;;;;;4268242;27;20085;-54
2024/03/08 01:09:57;;;;;;;6.45;2.92;;;7.30;97.50;;;;;;4268053;27;20107;-54
2024/03/08 01:11:59;;;;;;;6.47;2.20;;;7.30;97.50;;;;;;4267922;27;20063;-54
2024/03/08 01:14:02;;;;;;;14.07;4.22;;;7.20;97.70;;;;;;4267624;27;20316;-54
2024/03/08 01:16:05;;;;;;;6.50;4.32;;;7.20;97.80;;;;;;4268565;27;20088;-54
2024/03/08 01:18:07;;;;;;;7.28;3.72;;;7.20;97.80;;;;;;4267976;27;20477;-55
2024/03/08 01:20:12;;;;;;;9.05;4.95;;;7.20;97.60;;;;;;4269223;27;20058;-55
2024/03/08 01:22:14;;;;;;;;;;;7.20;97.80;;;;;;4271617;27;20086;-55
2024/03/08 01:24:16;;;;;;;5.43;3.53;;;7.20;97.70;;;;;;4252528;27;19923;-63
2024/03/08 01:26:19;;;;;;;4.25;3.80;;;7.10;97.80;;;;;;4270680;27;20070;-55
2024/03/08 01:28:21;;;;;;;4.82;2.85;;;7.10;98.00;;;;;;4251057;27;20039;-56
2024/03/08 01:30:23;;;;;;;8.90;4.20;;;7.10;98.00;;;;;;4268683;27;20070;-54
2024/03/08 01:32:25;;;;;;;5.38;4.03;;;7.10;98.00;;;;;;4267848;27;20085;-55
2024/03/08 01:34:28;;;;;;;5.07;3.13;;;7.10;98.10;;;;;;4267910;27;20068;-57
2024/03/08 01:36:30;;;;;;;7.22;4.00;;;7.00;98.10;;;;;;4267425;27;20055;-55
2024/03/08 01:38:33;;;;;;;4.30;3.53;;;7.00;98.10;;;;;;4267857;27;20126;-55
2024/03/08 01:40:36;;;;;;;8.57;4.75;;;7.00;98.20;;;;;;4267652;27;20047;-54
2024/03/08 01:42:39;;;;;;;6.03;3.83;;;6.90;98.50;;;;;;4267225;27;20410;-54
2024/03/08 01:44:43;;;;;;;9.80;5.90;;;7.00;98.30;;;;;;4267641;27;20088;-55
2024/03/08 01:46:46;;;;;;;11.55;6.68;;;6.90;98.20;;;;;;4249497;27;20170;-55
2024/03/08 01:48:50;;;;;;;10.00;3.75;;;6.90;98.40;;;;;;4268084;27;20070;-55
2024/03/08 01:50:54;;;;;;;4.18;3.53;;;6.80;98.40;;;;;;4267481;27;20074;-54
2024/03/08 01:52:59;;;;;;;6.88;4.13;;;6.80;98.40;;;;;;4248913;27;20074;-54
2024/03/08 01:55:07;;;;;;;8.75;3.72;;;6.80;98.60;;;;;;4267523;27;20043;-54
2024/03/08 01:57:10;;;;;;;6.70;4.88;;;6.80;98.50;;;;;;4266813;27;20070;-55
2024/03/08 01:59:16;;;;;;;8.93;4.13;;;6.80;98.70;;;;;;4267147;27;20050;-55
2024/03/08 02:01:19;;;;;;;7.97;3.65;;;6.70;98.70;;;;;;4267100;27;20042;-55
2024/03/08 02:03:22;;;;;;;5.32;4.38;;;6.80;98.80;;;;;;4267052;27;20038;-55
2024/03/08 02:05:25;;;;;;;8.93;4.20;;;6.70;98.70;;;;;;4267356;27;20111;-55
2024/03/08 02:07:27;;;;;;;4.53;4.03;;;6.70;98.80;;;;;;4267362;27;20134;-54
2024/03/08 02:09:29;;;;;;;11.85;4.63;;;6.60;99.00;;;;;;4267097;27;20046;-59
2024/03/08 02:11:32;;;;;;;6.47;3.88;;;6.70;98.90;;;;;;4267499;27;20038;-56
2024/03/08 02:13:34;;;;;;;8.43;5.03;;;6.70;98.90;;;;;;4267426;27;20393;-62
2024/03/08 02:15:54;;;;;;;10.93;4.75;;;6.70;98.80;;;;;;4267624;27;20229;-54
2024/03/08 02:17:56;;;;;;;6.78;4.18;;;6.70;98.80;;;;;;4267736;27;20505;-55
2024/03/08 02:20:01;;;;;;;9.10;4.38;;;6.60;98.90;;;;;;4267194;27;20050;-55
2024/03/08 02:22:05;;;;;;;;;;;6.60;99.30;;;;;;4268612;27;20140;-55
2024/03/08 02:24:07;;;;;;;9.07;4.65;;;6.60;99.10;;;;;;4267556;27;20319;-55
2024/03/08 02:26:10;;;;;;;10.75;5.72;;;6.60;99.20;;;;;;4267357;27;20057;-54
2024/03/08 02:28:13;;;;;;;11.75;6.18;;;6.60;99.20;;;;;;4267694;27;20042;-54
2024/03/08 02:30:17;;;;;;;10.40;5.13;;;6.60;99.10;;;;;;4267606;27;20486;-54
2024/03/08 02:32:19;;;;;;;7.97;5.93;;;6.60;99.10;;;;;;4248532;27;20047;-55
2024/03/08 02:34:21;;;;;;;4.15;3.47;;;6.50;99.20;;;;;;4267096;27;20043;-54
2024/03/08 02:36:23;;;;;;;6.05;3.33;;;6.50;99.10;;;;;;4266975;27;20485;-55
2024/03/08 02:38:28;;;;;;;9.27;4.47;;;6.50;99.20;;;;;;4266956;27;20046;-55
2024/03/08 02:40:30;;;;;;;8.57;4.28;;;6.50;99.20;;;;;;4266472;27;20193;-55
2024/03/08 02:42:32;;;;;;;7.25;3.85;;;6.40;99.30;;;;;;4268735;27;20512;-55
2024/03/08 02:44:34;;;;;;;5.68;4.80;;;6.40;99.40;;;;;;4268324;27;20047;-54
2024/03/08 02:46:36;;;;;;;9.48;5.80;;;6.40;99.30;;;;;;4266824;27;20068;-55
2024/03/08 02:48:39;;;;;;;5.90;3.95;;;6.30;99.60;;;;;;4248446;27;20047;-57
2024/03/08 02:50:45;;;;;;;10.57;5.15;;;6.30;99.60;;;;;;4266409;27;20492;-55
2024/03/08 02:52:48;;;;;;;13.82;4.53;;;6.30;99.60;;;;;;4266653;27;20053;-55
2024/03/08 02:54:51;;;;;;;8.40;4.32;;;6.20;99.70;;;;;;4267611;27;20406;-55
2024/03/08 02:56:55;;;;;;;8.50;4.53;;;6.30;99.70;;;;;;4267245;27;20170;-58
2024/03/08 02:58:57;;;;;;;6.40;4.40;;;6.30;99.60;;;;;;4248365;27;20051;-56
2024/03/08 03:00:59;;;;;;;10.27;4.03;;;6.30;99.90;;;;;;4266319;27;20051;-55
2024/03/08 03:03:02;;;;;;;8.40;5.05;;;6.30;99.70;;;;;;4266210;27;20068;-54
2024/03/08 03:05:06;;;;;;;9.02;4.88;;;6.30;99.80;;;;;;4266314;27;20064;-56
2024/03/08 03:07:08;;;;;;;6.45;4.18;;;6.20;99.70;;;;;;4266300;27;20049;-55
2024/03/08 03:09:10;;;;;;;7.70;4.50;;;6.20;99.80;;;;;;4265839;27;20039;-54
2024/03/08 03:11:14;;;;;;;7.68;5.97;;;6.20;99.70;;;;;;4266006;27;20088;-55
2024/03/08 03:13:16;;;;;;;11.43;5.22;;;6.20;99.80;;;;;;4265149;27;20054;-54
2024/03/08 03:15:18;;;;;;;8.35;4.63;;;6.20;99.80;;;;;;4266149;27;20057;-54
2024/03/08 03:17:20;;;;;;;6.68;4.85;;;6.20;99.90;;;;;;4265863;27;20486;-55
2024/03/08 03:19:22;;;;;;;8.32;4.15;;;6.20;99.90;;;;;;4265722;27;20058;-54
2024/03/08 03:21:24;;;;;;;6.40;3.78;;;6.20;99.80;;;;;;4265827;27;20070;-54
2024/03/08 03:23:26;;;;;;;8.40;4.45;;;6.20;99.70;;;;;;4265453;27;20042;-55
2024/03/08 03:25:33;;;;;;;9.00;4.78;;;6.10;99.90;;;;;;4265644;27;20050;-54
2024/03/08 03:27:37;;;;;;;14.02;4.97;;;6.10;99.90;;;;;;4247519;27;20039;-54
2024/03/08 03:29:42;;;;;;;10.82;5.80;;;6.10;99.90;;;;;;4266186;27;20042;-55
2024/03/08 03:31:47;;;;;;;8.50;4.15;;;6.10;99.90;;;;;;4265722;27;20121;-54
2024/03/08 03:33:51;;;;;;;5.93;4.05;;;6.20;99.70;;;;;;4265886;27;20130;-55
2024/03/08 03:35:54;;;;;;;6.47;3.75;;;6.10;99.80;;;;;;4265825;27;20122;-54
2024/03/08 03:38:08;;;;;;;7.32;4.80;;;6.10;99.90;;;;;;4265448;27;20084;-55
2024/03/08 03:40:13;;;;;;;5.90;4.68;;;6.10;99.90;;;;;;4265772;27;20302;-61
2024/03/08 03:42:16;;;;;;;7.97;5.10;;;6.20;99.70;;;;;;4265555;27;20039;-54
2024/03/08 03:44:19;;;;;;;8.75;5.03;;;6.10;99.90;;;;;;4265837;27;20088;-54
2024/03/08 03:46:21;;;;;;;8.73;5.57;;;6.10;99.90;;;;;;4247258;27;20506;-54
2024/03/08 03:48:24;;;;;;;11.02;5.47;;;6.10;99.90;;;;;;4265699;27;20074;-58
2024/03/08 03:50:26;;;;;;;10.20;5.85;;;6.00;99.90;;;;;;4267411;27;20055;-54
2024/03/08 03:52:28;;;;;;;10.77;4.60;;;6.00;99.90;;;;;;4267734;27;20038;-55
2024/03/08 03:54:30;;;;;;;13.40;4.95;;;6.00;99.90;;;;;;4267686;27;20069;-54
2024/03/08 03:56:32;;;;;;;7.43;4.70;;;6.00;99.90;;;;;;4267107;27;20062;-60
2024/03/08 03:58:35;;;;;;;9.35;6.07;;;6.00;99.90;;;;;;4267500;27;20046;-56
2024/03/08 04:00:38;;;;;;;8.00;4.35;;;6.00;99.90;;;;;;4267076;27;20450;-54
2024/03/08 04:02:41;;;;;;;5.35;3.65;;;6.10;99.90;;;;;;4265848;27;20047;-54
2024/03/08 04:04:45;;;;;;;7.32;4.28;;;6.10;99.90;;;;;;4265231;27;20103;-54
2024/03/08 04:06:47;;;;;;;8.80;6.03;;;6.00;99.90;;;;;;4265229;27;20047;-56
2024/03/08 04:08:49;;;;;;;9.07;4.43;;;6.00;99.90;;;;;;4265628;27;20482;-54
2024/03/08 04:10:52;;;;;;;7.88;4.80;;;6.10;99.90;;;;;;4265501;27;20047;-54
2024/03/08 04:12:54;;;;;;;9.77;4.97;;;6.10;99.90;;;;;;4265656;27;20076;-54
2024/03/08 04:14:56;;;;;;;8.30;5.80;;;6.10;99.90;;;;;;4265702;27;20053;-55
2024/03/08 04:17:00;;;;;;;8.38;4.80;;;6.10;99.90;;;;;;4265668;27;20043;-54
2024/03/08 04:19:04;;;;;;;5.72;4.13;;;6.10;99.90;;;;;;4265353;27;20047;-54
2024/03/08 04:21:09;;;;;;;4.43;3.78;;;6.10;99.90;;;;;;4264797;27;20039;-54
2024/03/08 04:23:11;;;;;;;10.93;4.82;;;6.10;99.90;;;;;;4265460;27;20531;-55
2024/03/08 04:25:13;;;;;;;8.93;4.63;;;6.10;99.80;;;;;;4249861;27;20047;-55
2024/03/08 04:27:15;;;;;;;13.70;6.25;;;6.00;99.90;;;;;;4268795;27;20127;-55
2024/03/08 04:29:17;;;;;;;11.68;5.13;;;6.10;99.90;;;;;;4268881;27;20065;-55
2024/03/08 04:31:19;;;;;;;10.82;5.00;;;6.10;99.90;;;;;;4268593;27;20047;-55
2024/03/08 04:33:25;;;;;;;9.73;4.95;;;6.10;99.80;;;;;;4268751;27;20483;-54
2024/03/08 04:35:27;;;;;;;7.68;4.45;;;6.10;99.80;;;;;;4268235;27;20047;-54
2024/03/08 04:37:29;;;;;;;11.23;6.70;;;6.20;99.70;;;;;;4268863;27;20133;-53
2024/03/08 04:39:31;;;;;;;5.72;3.75;;;6.10;99.80;;;;;;4268534;27;20039;-54
2024/03/08 04:41:34;;;;;;;5.10;4.32;;;6.10;99.80;;;;;;4268394;27;20405;-54
2024/03/08 04:43:36;;;;;;;5.72;5.13;;;6.00;99.70;;;;;;4268511;27;20042;-54
2024/03/08 04:45:39;;;;;;;6.80;4.45;;;6.00;99.90;;;;;;4268715;27;20478;-55
2024/03/08 04:47:41;;;;;;;8.70;3.97;;;6.00;99.90;;;;;;4268183;27;20130;-55
2024/03/08 04:49:45;;;;;;;4.55;3.60;;;6.00;99.90;;;;;;4268566;27;20053;-54
2024/03/08 04:51:47;;;;;;;8.82;4.82;;;5.90;99.90;;;;;;4268213;27;20046;-55
2024/03/08 04:53:49;;;;;;;8.05;4.75;;;5.90;99.90;;;;;;4269988;27;20379;-55
2024/03/08 04:55:51;;;;;;;6.00;2.97;;;5.90;99.90;;;;;;4270981;27;20050;-54
2024/03/08 04:57:53;;;;;;;7.43;4.25;;;6.00;99.90;;;;;;4270177;27;20081;-57
2024/03/08 04:59:55;;;;;;;15.88;5.95;;;6.00;99.90;;;;;;4269791;27;20053;-60
2024/03/08 05:01:58;;;;;;;10.32;4.53;;;6.10;99.90;;;;;;4269598;27;20565;-53
2024/03/08 05:03:59;;;;;;;7.15;4.18;;;6.00;99.90;;;;;;4269197;27;20053;-59
2024/03/08 05:06:08;;;;;;;9.18;5.78;;;6.10;99.90;;;;;;4269914;27;20118;-55
2024/03/08 05:08:11;;;;;;;11.13;7.00;;;6.00;99.90;;;;;;4252131;27;20051;-54
2024/03/08 05:10:17;;;;;;;8.75;4.80;;;6.00;99.90;;;;;;4268802;27;20046;-55
2024/03/08 05:12:19;;;;;;;11.20;5.57;;;6.00;99.90;;;;;;4268707;27;20441;-55
2024/03/08 05:14:21;;;;;;;9.55;5.90;;;6.00;99.90;;;;;;4268208;27;20102;-54
2024/03/08 05:16:24;;;;;;;8.63;6.13;;;6.00;99.80;;;;;;4268195;27;20080;-54
2024/03/08 05:18:28;;;;;;;10.55;5.72;;;6.00;99.90;;;;;;4268038;27;20049;-62
2024/03/08 05:20:30;;;;;;;5.72;5.20;;;5.90;99.90;;;;;;4267633;27;20047;-54
2024/03/08 05:22:35;;;;;;;7.72;5.50;;;5.90;99.90;;;;;;4268326;27;20058;-55
2024/03/08 05:24:37;;;;;;;10.38;5.18;;;5.90;99.90;;;;;;4268003;27;20050;-54
2024/03/08 05:26:40;;;;;;;12.40;7.40;;;5.90;99.90;;;;;;4268544;27;20129;-55
2024/03/08 05:28:42;;;;;;;8.38;5.13;;;5.90;99.90;;;;;;4269826;27;20058;-59
2024/03/08 05:30:44;;;;;;;16.38;7.25;;;5.80;99.90;;;;;;4269096;27;20066;-56
2024/03/08 05:32:46;;;;;;;13.15;6.13;;;5.90;99.90;;;;;;4268407;27;20042;-55
2024/03/08 05:34:48;;;;;;;8.77;4.95;;;5.90;99.90;;;;;;4267541;27;20552;-54
2024/03/08 05:36:51;;;;;;;7.43;5.75;;;5.80;99.90;;;;;;4267298;27;20047;-54
2024/03/08 05:38:54;;;;;;;12.63;5.85;;;5.80;99.90;;;;;;4268740;27;20047;-54
2024/03/08 05:40:57;;;;;;;7.70;4.70;;;5.90;99.90;;;;;;4269080;27;20431;-58
2024/03/08 05:42:59;;;;;;;8.60;4.60;;;5.80;99.90;;;;;;4268756;27;20134;-58
2024/03/08 05:45:01;;;;;;;7.55;4.88;;;5.80;99.90;;;;;;4267775;27;20053;-55
2024/03/08 05:47:04;;;;;;;8.60;5.63;;;5.80;99.90;;;;;;4267806;27;20039;-54
2024/03/08 05:49:06;;;;;;;8.88;4.32;;;5.80;99.90;;;;;;4267357;27;20138;-54
2024/03/08 05:51:09;;;;;;;9.60;6.93;;;5.80;99.90;;;;;;4267674;27;20125;-54
2024/03/08 05:53:11;;;;;;;9.65;5.50;;;5.80;99.90;;;;;;4267773;27;20103;-53
2024/03/08 05:55:14;;;;;;;10.18;6.05;;;5.80;99.90;;;;;;4267712;27;20047;-53
2024/03/08 05:57:16;;;;;;;10.02;5.00;;;5.70;99.90;;;;;;4267195;27;20078;-54
2024/03/08 05:59:19;;;;;;;12.18;5.47;;;5.70;99.90;;;;;;4267302;27;20042;-54
2024/03/08 06:01:21;;;;;;;13.27;5.95;;;5.60;99.90;;;;;;4267198;27;20054;-54
2024/03/08 06:03:24;;;;;;;7.88;5.28;;;5.60;99.90;;;;;;4266803;27;20043;-54
2024/03/08 06:05:26;;;;;;;6.82;4.28;;;5.60;99.90;;;;;;4267188;27;20045;-55
2024/03/08 06:07:30;;;;;;;12.15;5.45;;;5.70;99.90;;;;;;4267075;27;20099;-54
2024/03/08 06:09:31;;;;;;;7.55;4.07;;;5.80;99.90;;;;;;4267212;27;20117;-55
2024/03/08 06:11:37;;;;;;;9.75;5.20;;;5.80;99.90;;;;;;4266974;27;20046;-54
2024/03/08 06:13:39;;;;;;;7.65;3.72;;;5.90;99.90;;;;;;4266969;27;20092;-55
2024/03/08 06:15:42;;;;;;;7.60;5.50;;;5.90;99.90;;;;;;4266997;27;20092;-55
2024/03/08 06:17:44;;;;;;;11.30;5.65;;;5.90;99.90;;;;;;4266582;27;20125;-56
2024/03/08 06:19:46;;;;;;;9.45;5.88;;;5.80;99.90;;;;;;4266613;27;20414;-55
2024/03/08 06:21:48;;;;;;;13.45;6.32;;;5.80;99.90;;;;;;4267108;27;20122;-54
2024/03/08 06:23:51;;;;;;;8.60;4.63;;;5.70;99.90;;;;;;4267136;27;20043;-54
2024/03/08 06:25:53;;;;;;;13.43;6.13;;;5.70;99.90;;;;;;4267158;27;20066;-55
2024/03/08 06:27:56;;;;;;;13.23;4.30;;;5.80;99.90;;;;;;4266987;27;20068;-54
2024/03/08 06:29:58;;;;;;;12.77;6.60;;;5.90;99.90;;;;;;4266988;27;20049;-55
2024/03/08 06:32:01;;;;;;;14.57;4.70;;;5.90;99.90;;;;;;4266516;27;20046;-54
2024/03/08 06:34:03;;;;;;;7.68;4.80;;;5.80;99.90;;;;;;4266894;27;20038;-54
2024/03/08 06:36:05;;;;;;;8.07;4.50;;;5.80;99.90;;;;;;4266890;27;20043;-54
2024/03/08 06:38:08;;;;;;;13.48;6.65;;;5.80;99.90;;;;;;4267225;27;20046;-55
2024/03/08 06:40:13;;;;;;;7.70;4.95;;;5.80;99.90;;;;;;4266992;27;20125;-55
2024/03/08 06:42:16;;;;;;;13.00;5.15;;;5.80;99.90;;;;;;4266523;27;20074;-55
2024/03/08 06:44:21;;;;;;;10.23;5.50;;;5.80;99.90;;;;;;4266691;27;20047;-55
2024/03/08 06:46:23;;;;;;;7.70;5.32;;;5.80;99.90;;;;;;4266599;27;20470;-54
2024/03/08 06:48:26;;;;;;;12.93;6.00;;;5.80;99.90;;;;;;4247419;27;20043;-55
2024/03/08 06:50:28;;;;;;;7.13;4.40;;;5.80;99.90;;;;;;4266976;27;20078;-55
2024/03/08 06:52:30;;;;;;;9.38;4.43;;;5.90;99.90;;;;;;4266688;27;20045;-55
2024/03/08 06:54:32;;;;;;;10.02;4.82;;;5.90;99.90;;;;;;4266579;27;20050;-55
2024/03/08 06:56:34;;;;;;;17.92;6.78;;;5.90;99.80;;;;;;4266504;27;20053;-55
2024/03/08 06:58:37;;;;;;;7.82;4.88;;;5.90;99.90;;;;;;4266423;27;20077;-59
2024/03/08 07:00:40;;;;;;;12.38;6.75;;;5.90;99.90;;;;;;4266880;27;20047;-54
2024/03/08 07:02:45;;;;;;;10.90;4.72;;;5.90;99.90;;;;;;4267453;27;20404;-56
2024/03/08 07:04:50;;;;;;;8.67;5.50;;;6.00;99.80;;;;;;4266533;27;20401;-56
2024/03/08 07:06:52;;;;;;;7.78;5.45;;;5.90;99.90;;;;;;4266447;27;20050;-54
2024/03/08 07:08:54;;;;;;;10.93;6.47;;;5.90;99.70;;;;;;4266304;27;20054;-55
2024/03/08 07:10:58;;;;;;;10.20;4.22;;;6.00;99.70;;;;;;4266402;27;20131;-55
2024/03/08 07:13:03;;;;;;;10.18;5.03;;;5.90;99.80;;;;;;4266554;27;20440;-55
2024/03/08 07:15:06;;;;;;;4.65;4.15;;;6.00;99.60;;;;;;4266950;27;20057;-57
2024/03/08 07:17:11;;;;;;;11.55;5.20;;;6.00;99.70;;;;;;4268743;27;20043;-55
2024/03/08 07:19:13;;;;;;;9.02;6.50;;;6.00;99.70;;;;;;4267030;27;20047;-55
2024/03/08 07:21:16;;;;;;;11.68;6.93;;;6.20;99.70;;;;;;4266966;27;20473;-55
2024/03/08 07:25:41;;;;;;;6.95;5.53;;;6.40;99.50;;;;;;4268042;27;20047;-55
2024/03/08 07:27:44;;;;;;;7.22;4.40;;;6.50;98.80;;;;;;4268088;27;20108;-55
2024/03/08 07:29:46;;;;;;;11.98;6.30;;;6.60;98.80;;;;;;4267432;27;20377;-55
2024/03/08 07:31:56;;;;;;;9.48;4.43;;;6.80;98.60;;;;;;4267260;27;20050;-54
2024/03/08 07:33:59;;;;;;;8.02;5.65;;;7.00;98.60;;;;;;4266618;27;20066;-55
2024/03/08 07:36:01;;;;;;;7.47;5.50;;;7.20;98.10;;;;;;4266110;27;20485;-53
2024/03/08 07:38:05;;;;;;;9.73;5.47;;;7.30;97.60;;;;;;4265875;27;20043;-55
2024/03/08 07:40:09;;;;;;;13.13;4.13;;;7.50;97.40;;;;;;4265667;27;20096;-55
2024/03/08 07:42:11;;;;;;;9.23;4.65;;;7.70;97.20;;;;;;4265543;27;20527;-55
2024/03/08 07:44:14;;;;;;;6.40;3.22;;;7.90;96.70;;;;;;4265105;27;20103;-59
2024/03/08 07:46:18;;;;;;;11.32;3.63;;;8.20;96.40;;;;;;4265682;27;20435;-54
2024/03/08 07:48:21;;;;;;;6.40;3.55;;;8.30;96.40;;;;;;4265759;27;20073;-57
2024/03/08 07:50:24;;;;;;;8.13;5.43;;;8.30;95.80;;;;;;4265700;27;20063;-54
2024/03/08 07:52:26;;;;;;;6.72;4.03;;;8.30;95.80;;;;;;4265511;27;20125;-54
2024/03/08 07:54:28;;;;;;;12.80;5.55;;;8.30;96.30;;;;;;4265516;27;20045;-54
2024/03/08 07:56:31;;;;;;;14.65;5.10;;;8.30;95.90;;;;;;4247403;27;20122;-55
2024/03/08 07:58:33;;;;;;;6.40;4.00;;;8.40;95.80;;;;;;4264989;27;20160;-55
2024/03/08 08:00:37;;;;;;;9.55;5.30;;;8.30;95.80;;;;;;4265578;27;20500;-55
2024/03/08 08:02:39;;;;;;;10.55;6.75;;;8.20;96.30;;;;;;4266014;27;20121;-54
2024/03/08 08:04:42;;;;;;;9.52;4.07;;;8.30;95.80;;;;;;4265923;27;20061;-54
2024/03/08 08:06:46;;;;;;;6.72;4.25;;;8.30;95.70;;;;;;4265474;27;20038;-54
2024/03/08 08:08:48;;;;;;;8.77;4.35;;;8.10;96.00;;;;;;4265409;27;20046;-55
2024/03/08 08:10:50;;;;;;;8.02;5.43;;;8.10;96.10;;;;;;4265194;27;20103;-54
2024/03/08 08:12:52;;;;;;;7.40;4.05;;;8.10;96.30;;;;;;4265187;27;20058;-54
2024/03/08 08:14:55;;;;;;;7.80;5.07;;;8.30;95.90;;;;;;4265369;27;20072;-54
2024/03/08 08:16:58;;;;;;;7.43;3.20;;;8.60;95.60;;;;;;4265260;27;20042;-54
2024/03/08 08:19:00;;;;;;;5.93;3.10;;;8.80;95.50;;;;;;4265189;27;20541;-54
2024/03/08 08:21:03;;;;;;;8.85;4.28;;;8.90;95.50;;;;;;4246801;28;20108;-55
2024/03/08 08:23:06;;;;;;;8.23;4.05;;;8.90;95.10;;;;;;4259546;27;20532;-54
2024/03/08 08:25:08;;;;;;;6.07;3.38;;;8.90;95.10;;;;;;4248357;28;20074;-54
2024/03/08 08:27:11;;;;;;;7.30;3.35;;;8.90;95.10;;;;;;4252623;27;20051;-54
2024/03/08 08:29:14;;;;;;;7.25;4.55;;;8.80;94.80;;;;;;4258670;27;20075;-55
2024/03/08 08:31:16;;;;;;;6.07;3.83;;;8.60;95.20;;;;;;4258601;27;20110;-54
2024/03/08 08:33:19;;;;;;;12.60;4.28;;;8.50;95.40;;;;;;4265137;27;20396;-54
2024/03/08 08:35:22;;;;;;;6.97;2.63;;;8.40;95.40;;;;;;4259891;27;20521;-55
2024/03/08 08:37:24;;;;;;;5.88;3.40;;;8.30;95.70;;;;;;4240279;28;20575;-56
2024/03/08 08:39:28;;;;;;;7.47;4.35;;;8.30;95.70;;;;;;4261236;27;20067;-54
2024/03/08 08:41:31;;;;;;;9.07;4.32;;;8.30;95.80;;;;;;4257602;27;20122;-54
2024/03/08 08:43:33;;;;;;;6.65;4.00;;;8.40;95.90;;;;;;4259005;27;20042;-55
2024/03/08 08:45:38;;;;;;;7.63;5.28;;;8.50;95.70;;;;;;4258740;27;20490;-54
2024/03/08 08:47:42;;;;;;;12.00;4.30;;;8.60;95.60;;;;;;4258511;27;20043;-56
2024/03/08 08:49:46;;;;;;;3.53;3.03;;;8.70;95.20;;;;;;4260492;27;20042;-59
2024/03/08 08:51:52;;;;;;;11.80;4.80;;;8.70;95.50;;;;;;4261727;27;20616;-55
2024/03/08 08:53:57;;;;;;;7.18;4.32;;;8.70;95.30;;;;;;4258997;27;20467;-56
2024/03/08 08:56:01;;;;;;;5.82;2.60;;;8.70;95.20;;;;;;4260794;27;20097;-53
2024/03/08 08:58:04;;;;;;;9.38;3.30;;;8.70;95.40;;;;;;4261387;27;20043;-55
2024/03/08 09:00:07;;;;;;;7.13;4.13;;;8.70;95.20;;;;;;4237386;28;20085;-55
2024/03/08 09:02:10;;;;;;;4.82;2.58;;;8.70;95.30;;;;;;4255281;27;20038;-54
2024/03/08 09:04:15;;;;;;;6.85;4.05;;;8.70;95.40;;;;;;4259036;27;20401;-55
2024/03/08 09:06:18;;;;;;;5.95;4.32;;;8.70;95.40;;;;;;4258405;27;20538;-56
2024/03/08 09:08:20;;;;;;;10.48;5.55;;;8.60;95.30;;;;;;4254508;27;20838;-55
2024/03/08 09:10:23;;;;;;;7.30;3.63;;;8.50;95.50;;;;;;4251725;27;20505;-55
2024/03/08 09:12:32;;;;;;;9.77;4.97;;;8.60;95.60;;;;;;4256340;27;20066;-55
2024/03/08 09:14:34;;;;;;;5.60;3.13;;;8.60;95.60;;;;;;4267341;27;20045;-54
2024/03/08 09:16:37;;;;;;;4.30;3.42;;;8.60;95.70;;;;;;4254677;27;20459;-56
2024/03/08 09:18:39;;;;;;;6.65;4.40;;;8.70;95.60;;;;;;4265755;27;20039;-55
2024/03/08 09:20:41;;;;;;;10.23;3.60;;;8.70;95.50;;;;;;4252590;27;20058;-54
2024/03/08 09:22:44;;;;;;;6.90;3.28;;;8.80;95.50;;;;;;4248749;27;20118;-55
2024/03/08 09:24:46;;;;;;;7.38;3.90;;;8.90;95.70;;;;;;4267943;27;20066;-62
2024/03/08 09:26:49;;;;;;;11.77;4.82;;;9.00;95.40;;;;;;4262724;27;20143;-54
2024/03/08 09:28:57;;;;;;;9.18;4.32;;;9.00;95.30;;;;;;4260532;27;20095;-55
2024/03/08 09:31:01;;;;;;;4.00;2.63;;;9.10;95.10;;;;;;4254334;27;20105;-55
2024/03/08 09:33:05;;;;;;;7.65;3.13;;;9.20;95.20;;;;;;4259582;27;20051;-57
2024/03/08 09:35:08;;;;;;;9.70;4.82;;;9.30;95.40;;;;;;4268237;27;20078;-54
2024/03/08 09:37:13;;;;;;;6.00;2.60;;;9.40;95.10;;;;;;4254877;27;20501;-54
2024/03/08 09:39:24;;;;;;;3.53;2.15;;;9.50;94.90;;;;;;4252279;27;20078;-55
2024/03/08 09:41:30;;;;;;;6.85;2.83;;;9.60;95.50;;;;;;4254511;27;20031;-58
2024/03/08 09:43:33;;;;;;;9.60;3.55;;;9.70;94.50;;;;;;4239104;27;20051;-55
2024/03/08 09:45:40;;;;;;;7.72;3.85;;;9.80;94.30;;;;;;4255740;27;20038;-54
2024/03/08 09:47:43;;;;;;;3.38;2.58;;;9.70;94.40;;;;;;4255302;27;20061;-54
2024/03/08 09:49:45;;;;;;;5.78;2.55;;;9.70;94.50;;;;;;4258306;27;20070;-55
2024/03/08 09:51:49;;;;;;;4.70;3.13;;;9.80;95.10;;;;;;4262274;27;20069;-55
2024/03/08 09:53:54;;;;;;;11.10;3.45;;;9.90;95.00;;;;;;4257002;27;20119;-55
2024/03/08 09:55:57;;;;;;;7.57;2.65;;;10.10;94.20;;;;;;4260617;27;20497;-54
2024/03/08 10:00:33;;;;;;;6.45;3.38;;;10.10;94.50;;;;;;4211753;28;20135;-54
2024/03/08 10:02:36;;;;;;;2.58;1.67;;;10.20;94.10;;;;;;4206638;28;20045;-59
2024/03/08 10:04:42;;;;;;;4.85;2.63;;;10.30;94.40;;;;;;4199938;28;20143;-55
2024/03/08 10:06:47;;;;;;;6.15;2.97;;;10.30;94.20;;;;;;4199524;28;20212;-55
2024/03/08 10:08:51;;;;;;;2.50;2.15;;;10.40;94.00;;;;;;4197340;28;20040;-55
2024/03/08 10:10:53;;;;;;;4.85;2.15;;;10.40;94.00;;;;;;4197051;28;20072;-60
2024/03/08 10:12:56;;;;;;;5.38;2.85;;;10.50;93.90;;;;;;4205052;28;20052;-54
2024/03/08 10:14:58;;;;;;;6.93;2.88;;;10.60;93.90;;;;;;4212851;28;20080;-54
2024/03/08 10:17:00;;;;;;;3.63;2.85;;;10.70;93.80;;;;;;4212316;28;20036;-54
2024/03/08 10:19:05;;;;;;;7.68;4.25;;;10.80;94.20;;;;;;4199003;28;20486;-56
2024/03/08 10:21:10;;;;;;;3.90;1.70;;;10.90;93.50;;;;;;4202419;28;20040;-54
2024/03/08 10:23:12;;;;;;;3.28;2.20;;;11.00;93.60;;;;;;4202561;28;20049;-57
2024/03/08 10:25:14;;;;;;;4.53;1.92;;;11.10;93.30;;;;;;4208983;28;20063;-56
2024/03/08 10:27:17;;;;;;;4.30;1.88;;;11.10;93.50;;;;;;4212515;28;20040;-55
2024/03/08 10:29:19;;;;;;;2.53;1.50;;;11.20;93.40;;;;;;4202219;28;20075;-54
2024/03/08 10:31:21;;;;;;;3.22;1.67;;;11.30;93.10;;;;;;4213483;28;20066;-56
2024/03/08 10:33:25;;;;;;;4.90;2.10;;;11.30;93.40;;;;;;4210186;28;20075;-59
2024/03/08 10:35:28;;;;;;;3.42;1.50;;;11.40;93.50;;;;;;4214624;28;20040;-58
2024/03/08 10:37:33;;;;;;;6.45;1.58;;;11.50;93.20;;;;;;4243976;27;20062;-55
2024/03/08 10:39:36;;;;;;;4.00;2.08;;;11.60;92.90;;;;;;4265018;27;20071;-60
2024/03/08 10:41:43;;;;;;;5.38;2.33;;;11.60;93.10;;;;;;4259584;27;20047;-54
2024/03/08 10:44:08;;;;;;;2.42;1.58;;;11.70;93.30;;;;;;4263661;27;20784;-53
2024/03/08 10:46:26;;;;;;;3.08;2.17;;;11.80;93.00;;;;;;4263820;27;20055;-55
2024/03/08 10:48:35;;;;;;;7.03;2.50;;;11.80;92.90;;;;;;4243747;27;20043;-59
2024/03/08 10:50:46;;;;;;;2.85;1.77;;;11.80;92.70;;;;;;4257660;27;20070;-55
2024/03/08 10:52:50;;;;;;;2.17;1.48;;;11.80;93.00;;;;;;4247595;27;20430;-55